Terminal Aerodrome Forecast
Issued by NWS

Home | Current Version | Previous Version | Text Only | Print | Product List | Glossary On
Versions: 1 2 3 4 5 6 7 8 9 10 11 12 13 14 15 16
000
FTUS43 KJKL 031739
TAFSJS
TAF
KSJS 031739Z 0318/0418 VRB05KT P6SM VCTS SCT035CB
     FM032200 VRB03KT P6SM FEW040
     FM040600 00000KT 2SM BR FEW250
      TEMPO 0408/0410 1/2SM FG BKN002
     FM041300 VRB03KT P6SM FEW035=

USA.gov is the U.S. government's official web portal to all federal, state and local government web resources and services.